createdAt,value
2024-02-13T12:20:26.396Z,59.21
2024-02-13T12:23:01.290Z,56.54
2024-02-13T12:25:32.062Z,58.43
2024-02-13T12:28:07.141Z,59.49
2024-02-13T12:30:37.507Z,60.76
2024-02-13T12:33:08.905Z,61.72
2024-02-13T12:35:41.201Z,62.21
2024-02-13T12:38:16.074Z,62.63
2024-02-13T12:40:46.986Z,63.24
2024-02-13T12:43:19.755Z,63.71
2024-02-13T12:45:50.178Z,64.27
2024-02-13T12:48:20.372Z,64.56
2024-02-13T12:50:50.949Z,63.70
2024-02-13T12:53:22.806Z,57.28
2024-02-13T12:55:53.942Z,54.83
2024-02-13T12:58:24.226Z,57.16
2024-02-13T13:00:56.113Z,58.78
2024-02-13T13:03:27.557Z,59.73
2024-02-13T13:05:57.532Z,60.66
2024-02-13T13:08:28.519Z,61.82
2024-02-13T13:10:58.918Z,62.47
2024-02-13T13:13:29.725Z,62.88
2024-02-13T13:16:00.205Z,62.98
2024-02-13T13:18:30.547Z,63.29
2024-02-13T13:21:01.610Z,63.66
2024-02-13T13:23:31.630Z,64.18
2024-02-13T13:26:02.470Z,63.98
2024-02-13T13:28:33.379Z,57.79
2024-02-13T13:31:05.939Z,56.28
2024-02-13T13:33:36.323Z,57.72
2024-02-13T13:36:07.631Z,59.05
2024-02-13T13:38:39.561Z,60.68
2024-02-13T13:41:09.592Z,61.72
2024-02-13T13:43:39.934Z,62.45
2024-02-13T13:46:09.942Z,62.95
2024-02-13T13:48:40.200Z,63.29
2024-02-13T13:51:10.134Z,63.54
2024-02-13T13:53:41.382Z,64.24
2024-02-13T13:56:12.175Z,63.88
2024-02-13T13:58:42.448Z,58.08
2024-02-13T14:01:12.525Z,56.27
2024-02-13T14:03:42.563Z,57.66
2024-02-13T14:06:12.629Z,59.31
2024-02-13T14:08:45.524Z,60.62
2024-02-13T14:11:15.490Z,61.79
2024-02-13T14:13:45.917Z,62.69
2024-02-13T14:16:18.165Z,63.51
2024-02-13T14:50:26.187Z,64.73
